Time;durP1;ratioP1;P1;durP2;ratioP2;P2;SDS_P1;SDS_P2;PMS_P1;PMS_P2;Temp;Humidity;BMP_temperature;BMP_pressure;BME280_temperature;BME280_humidity;BME280_pressure;Samples;Min_cycle;Max_cycle;Signal;HPM_P1;HPM_P2
2024/01/17 00:01:12;;;;;;;22.58;9.48;;;;;;;-3.15;100.00;99808.59;4986819;28;20049;-67
2024/01/17 00:03:37;;;;;;;23.58;9.70;;;;;;;-3.20;100.00;99813.53;4981966;28;20070;-68
2024/01/17 00:06:03;;;;;;;23.27;10.00;;;;;;;-3.25;100.00;99804.97;4987779;28;20105;-67
2024/01/17 00:08:28;;;;;;;18.67;8.75;;;;;;;-3.29;100.00;99793.03;4987454;28;20466;-68
2024/01/17 00:10:54;;;;;;;17.05;9.27;;;;;;;-3.32;100.00;99792.94;4987848;28;20801;-68
2024/01/17 00:13:20;;;;;;;21.75;10.25;;;;;;;-3.36;100.00;99782.69;4987180;28;20046;-67
2024/01/17 00:15:45;;;;;;;20.55;10.02;;;;;;;-3.41;100.00;99790.13;4987039;28;20081;-67
2024/01/17 00:18:30;;;;;;;22.13;10.15;;;;;;;-3.48;100.00;99789.91;4987862;28;20419;-67
2024/01/17 00:20:56;;;;;;;24.05;9.82;;;;;;;-3.51;100.00;99780.53;4986580;28;20046;-67
2024/01/17 00:23:22;;;;;;;19.45;10.27;;;;;;;-3.53;100.00;99777.09;4987428;28;20025;-67
2024/01/17 00:25:47;;;;;;;22.52;9.98;;;;;;;-3.59;100.00;99776.06;4984989;28;20117;-67
2024/01/17 00:28:14;;;;;;;18.02;9.90;;;;;;;-3.63;100.00;99771.72;4990985;28;20034;-67
2024/01/17 00:30:39;;;;;;;31.67;11.05;;;;;;;-3.65;100.00;99766.63;4990555;28;20491;-67
2024/01/17 00:33:04;;;;;;;18.25;10.10;;;;;;;-3.66;100.00;99752.31;4991805;28;20049;-67
2024/01/17 00:35:30;;;;;;;25.02;12.02;;;;;;;-3.66;100.00;99754.81;4993159;28;20102;-67
2024/01/17 00:37:55;;;;;;;24.05;10.95;;;;;;;-3.69;100.00;99748.81;4989601;28;20104;-67
2024/01/17 00:40:21;;;;;;;19.33;10.32;;;;;;;-3.69;100.00;99747.16;4987464;28;20721;-67
2024/01/17 00:42:46;;;;;;;23.85;11.20;;;;;;;-3.71;100.00;99743.69;4985066;28;20071;-68
2024/01/17 00:45:13;;;;;;;24.17;11.52;;;;;;;-3.74;100.00;99741.06;4986736;28;20043;-67
2024/01/17 00:47:38;;;;;;;24.08;11.70;;;;;;;-3.76;100.00;99741.03;4985750;28;20038;-67
2024/01/17 00:50:04;;;;;;;22.33;10.32;;;;;;;-3.75;100.00;99741.91;4987514;28;20034;-67
2024/01/17 00:52:30;;;;;;;23.38;12.02;;;;;;;-3.79;100.00;99730.84;4986643;28;20042;-66
2024/01/17 00:54:56;;;;;;;31.55;14.07;;;;;;;-3.81;100.00;99721.50;4986922;28;20125;-67
2024/01/17 00:57:21;;;;;;;25.63;12.70;;;;;;;-3.82;100.00;99722.31;4985140;28;20133;-67
2024/01/17 00:59:47;;;;;;;20.27;11.68;;;;;;;-3.83;100.00;99715.53;4988115;28;20040;-67
2024/01/17 01:02:12;;;;;;;22.27;10.52;;;;;;;-3.82;100.00;99702.97;4987453;28;20599;-67
2024/01/17 01:04:38;;;;;;;24.17;10.30;;;;;;;-3.82;100.00;99697.06;4990193;28;20072;-68
2024/01/17 01:07:03;;;;;;;27.10;11.52;;;;;;;-3.85;100.00;99695.31;4990342;28;20058;-67
2024/01/17 01:09:29;;;;;;;19.17;11.45;;;;;;;-3.83;100.00;99680.19;4990278;28;20562;-67
2024/01/17 01:11:54;;;;;;;19.50;10.95;;;;;;;-3.84;100.00;99676.81;4993133;28;20054;-64
2024/01/17 01:14:19;;;;;;;22.77;11.70;;;;;;;-3.85;100.00;99679.31;4987486;28;20057;-64
2024/01/17 01:16:45;;;;;;;23.55;11.75;;;;;;;-3.85;100.00;99676.78;4978876;28;20077;-64
2024/01/17 01:19:11;;;;;;;20.33;9.93;;;;;;;-3.83;100.00;99677.69;4986593;28;20053;-64
2024/01/17 01:21:36;;;;;;;20.92;10.95;;;;;;;-3.83;100.00;99676.00;4988583;28;20038;-63
2024/01/17 01:24:01;;;;;;;25.83;11.50;;;;;;;-3.82;100.00;99672.69;4988428;28;20113;-64
2024/01/17 01:26:27;;;;;;;22.38;10.68;;;;;;;-3.80;100.00;99667.69;4984434;28;20515;-64
2024/01/17 01:28:52;;;;;;;19.75;10.25;;;;;;;-3.80;100.00;99670.19;4986215;28;20052;-64
2024/01/17 01:31:18;;;;;;;26.88;11.55;;;;;;;-3.80;100.00;99657.56;4987709;28;20031;-64
2024/01/17 01:33:43;;;;;;;20.17;9.68;;;;;;;-3.82;100.00;99657.53;4984990;28;20470;-64
2024/01/17 01:36:08;;;;;;;22.88;11.65;;;;;;;-3.82;100.00;99655.03;4986146;28;20042;-64
2024/01/17 01:38:34;;;;;;;20.90;11.00;;;;;;;-3.82;100.00;99642.41;4983241;28;20471;-64
2024/01/17 01:40:59;;;;;;;21.95;10.32;;;;;;;-3.82;100.00;99639.88;4989252;28;20057;-64
2024/01/17 01:43:25;;;;;;;17.30;10.07;;;;;;;-3.82;100.00;99641.53;4985732;28;20050;-63
2024/01/17 01:46:16;;;;;;;20.05;10.95;;;;;;;-3.81;100.00;99646.63;4991976;28;20042;-63
2024/01/17 01:48:43;;;;;;;25.15;11.85;;;;;;;-3.81;100.00;99651.66;4986655;28;20130;-64
2024/01/17 01:51:13;;;;;;;19.63;10.40;;;;;;;-3.80;100.00;99640.78;4989157;28;20113;-64
2024/01/17 01:53:41;;;;;;;18.70;9.40;;;;;;;-3.79;100.00;99641.63;4990298;28;20026;-64
2024/01/17 01:56:08;;;;;;;20.02;9.77;;;;;;;-3.79;100.00;99629.88;4988508;28;20029;-64
2024/01/17 01:58:35;;;;;;;19.73;10.90;;;;;;;-3.81;100.00;99618.84;4992820;28;20042;-64
2024/01/17 02:01:02;;;;;;;21.67;10.20;;;;;;;-3.79;100.00;99618.91;4987938;28;20042;-64
2024/01/17 02:03:29;;;;;;;21.05;10.55;;;;;;;-3.82;100.00;99614.63;4985915;28;20054;-64
2024/01/17 02:05:55;;;;;;;20.10;9.30;;;;;;;-3.80;100.00;99607.94;4987109;28;20038;-63
2024/01/17 02:08:21;;;;;;;22.05;10.15;;;;;;;-3.79;100.00;99602.09;4982942;28;20053;-64
2024/01/17 02:10:47;;;;;;;22.45;10.60;;;;;;;-3.76;100.00;99591.22;4986728;28;20482;-63
2024/01/17 02:13:13;;;;;;;22.30;9.52;;;;;;;-3.79;100.00;99594.53;4988511;28;20042;-63
2024/01/17 02:15:39;;;;;;;25.58;11.63;;;;;;;-3.80;100.00;99597.84;4989298;28;20112;-64
2024/01/17 02:18:05;;;;;;;18.95;10.02;;;;;;;-3.81;100.00;99593.59;4989631;28;20706;-64
2024/01/17 02:20:31;;;;;;;20.88;10.40;;;;;;;-3.81;100.00;99585.19;4988787;28;20026;-64
2024/01/17 02:22:56;;;;;;;23.77;11.70;;;;;;;-3.80;100.00;99587.75;5012177;28;20471;-63
2024/01/17 02:25:21;;;;;;;19.50;10.70;;;;;;;-3.77;100.00;99577.75;4988658;28;20047;-63
2024/01/17 02:27:47;;;;;;;23.00;10.77;;;;;;;-3.76;100.00;99571.91;4989791;28;20491;-64
2024/01/17 02:30:14;;;;;;;20.77;10.82;;;;;;;-3.72;100.00;99570.31;4989716;28;20030;-63
2024/01/17 02:32:41;;;;;;;23.00;11.02;;;;;;;-3.64;100.00;99563.81;4995588;28;20537;-64
2024/01/17 02:35:06;;;;;;;19.83;10.43;;;;;;;-3.57;100.00;99550.53;4995925;28;20026;-64
2024/01/17 02:37:32;;;;;;;21.58;11.23;;;;;;;-3.51;100.00;99550.69;4991935;28;20133;-63
2024/01/17 02:39:57;;;;;;;18.50;10.43;;;;;;;-3.50;100.00;99546.50;4989323;28;20042;-63
2024/01/17 02:42:23;;;;;;;18.88;9.98;;;;;;;-3.48;100.00;99538.16;4989733;28;20448;-64
2024/01/17 02:44:48;;;;;;;25.00;11.15;;;;;;;-3.47;100.00;99532.31;4990265;28;21202;-64
2024/01/17 02:47:13;;;;;;;21.40;10.35;;;;;;;-3.48;100.00;99525.53;4984958;28;20470;-64
2024/01/17 02:49:39;;;;;;;19.92;10.02;;;;;;;-3.46;100.00;99518.00;4988395;28;20048;-63
2024/01/17 02:52:05;;;;;;;16.55;9.55;;;;;;;-3.46;100.00;99516.34;4985897;28;20026;-64
2024/01/17 02:54:31;;;;;;;23.27;10.52;;;;;;;-3.44;100.00;99516.38;4987425;28;20046;-64
2024/01/17 02:56:56;;;;;;;19.48;11.02;;;;;;;-3.40;100.00;99514.00;4987570;28;20042;-64
2024/01/17 02:59:22;;;;;;;19.27;10.40;;;;;;;-3.40;100.00;99500.50;4987439;28;20067;-64
2024/01/17 03:01:48;;;;;;;19.42;9.70;;;;;;;-3.36;100.00;99493.03;4994337;28;20031;-63
2024/01/17 03:04:13;;;;;;;24.35;12.05;;;;;;;-3.34;100.00;99488.88;4989910;28;20042;-63
2024/01/17 03:06:38;;;;;;;20.45;10.40;;;;;;;-3.33;100.00;99490.56;4984738;28;20045;-64
2024/01/17 03:09:04;;;;;;;17.42;10.00;;;;;;;-3.33;100.00;99490.56;4989772;28;20065;-63
2024/01/17 03:11:30;;;;;;;21.38;10.27;;;;;;;-3.32;100.00;99489.78;4987336;28;20085;-64
2024/01/17 03:13:56;;;;;;;21.33;10.45;;;;;;;-3.28;100.00;99485.66;4994334;28;20168;-64
2024/01/17 03:16:21;;;;;;;22.27;10.75;;;;;;;-3.29;100.00;99479.75;4988967;28;20120;-64
2024/01/17 03:18:47;;;;;;;21.48;9.70;;;;;;;-3.31;100.00;99470.44;4992874;28;20454;-64
2024/01/17 03:21:13;;;;;;;21.73;10.43;;;;;;;-3.32;100.00;99472.09;4990419;28;20037;-64
2024/01/17 03:23:39;;;;;;;21.88;10.07;;;;;;;-3.32;100.00;99482.19;4991587;28;20014;-64
2024/01/17 03:26:04;;;;;;;21.08;10.13;;;;;;;-3.32;100.00;99474.63;4987436;28;20084;-63
2024/01/17 03:28:30;;;;;;;26.88;10.85;;;;;;;-3.26;100.00;99473.91;4992569;28;20046;-63
2024/01/17 03:30:55;;;;;;;23.75;11.43;;;;;;;-3.24;100.00;99464.69;4989276;28;20034;-63
2024/01/17 03:33:20;;;;;;;19.42;9.80;;;;;;;-3.19;100.00;99450.53;4991769;28;20035;-63
2024/01/17 03:35:46;;;;;;;19.77;10.80;;;;;;;-3.17;100.00;99437.91;4986494;28;20510;-64
2024/01/17 03:38:11;;;;;;;21.75;10.82;;;;;;;-3.15;100.00;99441.34;4987944;28;20022;-63
2024/01/17 03:40:37;;;;;;;22.55;11.80;;;;;;;-3.13;100.00;99433.00;4987078;28;20046;-64
2024/01/17 03:43:03;;;;;;;21.95;10.00;;;;;;;-3.14;100.00;99421.16;4987072;28;20069;-64
2024/01/17 03:45:28;;;;;;;19.48;11.02;;;;;;;-3.13;100.00;99411.91;4988749;28;20148;-64
2024/01/17 03:47:53;;;;;;;22.38;10.52;;;;;;;-3.17;100.00;99408.44;4988084;28;20392;-64
2024/01/17 03:50:19;;;;;;;18.70;9.82;;;;;;;-3.18;100.00;99404.19;4987952;28;20045;-64
2024/01/17 03:52:44;;;;;;;21.67;9.73;;;;;;;-3.22;100.00;99394.88;4986409;28;20026;-64
2024/01/17 03:55:10;;;;;;;22.55;10.93;;;;;;;-3.27;100.00;99392.22;4987505;28;20530;-64
2024/01/17 03:57:35;;;;;;;22.48;10.50;;;;;;;-3.34;100.00;99385.31;4989474;28;20041;-64
2024/01/17 04:00:04;;;;;;;24.48;10.95;;;;;;;-3.33;100.00;99378.56;4988912;28;20037;-64
2024/01/17 04:02:29;;;;;;;23.58;10.75;;;;;;;-3.39;100.00;99371.69;4987921;28;20023;-65
2024/01/17 04:04:55;;;;;;;22.60;9.85;;;;;;;-3.42;100.00;99363.22;4988517;28;20022;-64
2024/01/17 04:07:22;;;;;;;19.35;9.65;;;;;;;-3.51;100.00;99355.41;4985012;28;20045;-64
2024/01/17 04:09:47;;;;;;;19.75;10.60;;;;;;;-3.53;100.00;99346.94;4984349;28;20146;-63
2024/01/17 04:12:13;;;;;;;20.88;9.80;;;;;;;-3.55;100.00;99341.84;4988398;28;20082;-64
2024/01/17 04:14:39;;;;;;;21.08;10.23;;;;;;;-3.54;100.00;99333.44;4987492;28;20026;-64
2024/01/17 04:17:04;;;;;;;22.77;10.88;;;;;;;-3.54;100.00;99332.63;4985164;28;20034;-64
2024/01/17 04:19:29;;;;;;;20.80;10.93;;;;;;;-3.54;100.00;99333.44;4986627;28;20038;-64
2024/01/17 04:21:57;;;;;;;24.30;10.75;;;;;;;-3.51;100.00;99320.06;4988256;28;20100;-64
2024/01/17 04:24:24;;;;;;;22.20;11.27;;;;;;;-3.46;100.00;99309.25;4982888;28;20656;-64
2024/01/17 04:26:49;;;;;;;19.85;10.82;;;;;;;-3.40;100.00;99304.34;4983337;28;20047;-64
2024/01/17 04:29:15;;;;;;;20.83;10.73;;;;;;;-3.36;100.00;99285.06;4986564;28;20080;-64
2024/01/17 04:31:40;;;;;;;24.83;11.27;;;;;;;-3.31;100.00;99286.00;4989805;28;20829;-64
2024/01/17 04:34:05;;;;;;;24.80;10.25;;;;;;;-3.38;100.00;99279.97;4986299;28;20050;-64
2024/01/17 04:36:31;;;;;;;20.15;10.57;;;;;;;-3.45;100.00;99267.19;4985734;28;20518;-64
2024/01/17 04:38:57;;;;;;;20.85;11.50;;;;;;;-3.45;100.00;99267.19;4984221;28;20046;-65
2024/01/17 04:41:23;;;;;;;24.60;10.18;;;;;;;-3.45;100.00;99265.47;4992468;28;20057;-65
2024/01/17 04:43:48;;;;;;;20.38;10.88;;;;;;;-3.42;100.00;99255.44;4993238;28;20061;-65
2024/01/17 04:46:15;;;;;;;21.25;12.52;;;;;;;-3.41;100.00;99243.66;4984406;28;20062;-65
2024/01/17 04:48:42;;;;;;;18.85;10.68;;;;;;;-3.43;100.00;99236.06;4990374;28;20030;-64
2024/01/17 04:51:09;;;;;;;25.40;11.90;;;;;;;-3.44;100.00;99230.97;4988187;28;20079;-65
2024/01/17 04:53:35;;;;;;;21.40;9.68;;;;;;;-3.47;100.00;99214.09;4987018;28;20026;-64
2024/01/17 04:56:02;;;;;;;19.55;10.65;;;;;;;-3.50;100.00;99201.41;4989109;28;20434;-64
2024/01/17 04:58:28;;;;;;;19.60;10.30;;;;;;;-3.49;100.00;99202.25;4983630;28;20039;-65
2024/01/17 05:00:53;;;;;;;28.60;13.57;;;;;;;-3.47;100.00;99195.56;4983848;28;20392;-64
2024/01/17 05:03:19;;;;;;;21.67;12.13;;;;;;;-3.49;100.00;99192.16;4989198;28;20049;-64
2024/01/17 05:05:45;;;;;;;18.42;10.75;;;;;;;-3.47;100.00;99196.41;4989247;28;20022;-65
2024/01/17 05:08:14;;;;;;;18.40;10.00;;;;;;;-3.40;100.00;99189.81;4987133;28;20358;-65
2024/01/17 05:10:43;;;;;;;25.55;11.18;;;;;;;-3.39;100.00;99184.78;4989281;28;20449;-64
2024/01/17 05:13:10;;;;;;;27.20;12.15;;;;;;;-3.37;100.00;99169.69;4979899;28;20097;-65
2024/01/17 05:15:35;;;;;;;42.50;20.83;;;;;;;-3.35;100.00;99168.88;4987143;28;20088;-65
2024/01/17 05:18:01;;;;;;;31.27;15.38;;;;;;;-3.31;100.00;99172.34;4989389;28;20046;-65
2024/01/17 05:20:26;;;;;;;80.38;44.17;;;;;;;-3.24;100.00;99162.38;4985640;28;20066;-65
2024/01/17 05:22:52;;;;;;;40.90;21.15;;;;;;;-3.18;100.00;99161.66;4991345;28;20077;-65
2024/01/17 05:25:17;;;;;;;35.83;18.88;;;;;;;-3.14;100.00;99150.78;4992811;28;20030;-64
2024/01/17 05:27:50;;;;;;;26.25;12.70;;;;;;;-3.11;100.00;99148.31;4982242;28;20056;-65
2024/01/17 05:30:15;;;;;;;23.83;10.90;;;;;;;-3.07;100.00;99145.03;4990514;28;20519;-65
2024/01/17 05:32:41;;;;;;;22.23;10.48;;;;;;;-3.04;99.90;99141.72;4988157;28;20027;-64
2024/01/17 05:35:06;;;;;;;23.08;10.43;;;;;;;-3.04;99.11;99127.41;4986998;28;20025;-64
2024/01/17 05:37:32;;;;;;;17.27;9.30;;;;;;;-3.10;99.01;99122.25;4987173;28;20042;-64
2024/01/17 05:39:57;;;;;;;20.92;9.85;;;;;;;-3.07;99.22;99112.19;4986299;28;20045;-64
2024/01/17 05:42:23;;;;;;;21.27;9.93;;;;;;;-3.04;98.74;99116.44;4983370;28;20058;-64
2024/01/17 05:44:48;;;;;;;20.45;10.60;;;;;;;-3.03;98.75;99111.41;4986002;28;20019;-64
2024/01/17 05:47:14;;;;;;;21.85;10.82;;;;;;;-3.01;98.95;99106.41;4988914;28;20026;-64
2024/01/17 05:49:40;;;;;;;21.17;10.43;;;;;;;-3.02;98.77;99089.53;4991113;28;20037;-65
2024/01/17 05:52:05;;;;;;;19.30;10.82;;;;;;;-3.02;98.56;99095.44;4987122;28;20031;-64
2024/01/17 05:54:30;;;;;;;21.58;11.02;;;;;;;-3.00;99.39;99098.81;4989917;28;20550;-64
2024/01/17 05:56:56;;;;;;;17.92;9.13;;;;;;;-2.97;98.93;99092.97;4987816;28;20038;-64
2024/01/17 05:59:21;;;;;;;21.38;10.05;;;;;;;-2.92;99.45;99081.28;4990775;28;20654;-64
2024/01/17 06:01:47;;;;;;;23.15;11.73;;;;;;;-2.87;99.54;99077.16;4988889;28;20423;-64
2024/01/17 06:04:12;;;;;;;23.40;10.57;;;;;;;-2.79;99.11;99080.66;4989712;28;20530;-64
2024/01/17 06:06:38;;;;;;;34.95;18.33;;;;;;;-2.69;98.81;99077.47;4991342;28;20038;-64
2024/01/17 06:09:05;;;;;;;24.90;13.65;;;;;;;-2.60;98.30;99066.66;4992122;28;20038;-64
2024/01/17 06:11:30;;;;;;;21.88;10.60;;;;;;;-2.44;96.39;99041.63;4984159;28;20167;-65
2024/01/17 06:13:56;;;;;;;19.08;8.85;;;;;;;-2.31;95.96;99023.28;4992732;28;20054;-64
2024/01/17 06:16:21;;;;;;;17.08;8.32;;;;;;;-2.20;94.33;99004.03;4992792;28;20042;-64
2024/01/17 06:18:46;;;;;;;16.33;8.88;;;;;;;-2.13;94.52;99010.91;4990155;28;20129;-64
2024/01/17 06:21:12;;;;;;;15.35;8.38;;;;;;;-2.04;93.62;98992.44;4988615;28;20035;-64
2024/01/17 06:23:38;;;;;;;15.85;8.45;;;;;;;-1.98;92.86;98968.88;4989375;28;20030;-64
2024/01/17 06:26:03;;;;;;;15.63;7.97;;;;;;;-1.89;91.29;98952.13;4991445;28;20034;-65
2024/01/17 06:28:29;;;;;;;17.80;9.18;;;;;;;-1.87;92.05;98962.25;4991891;28;20061;-64
2024/01/17 06:30:54;;;;;;;18.33;8.27;;;;;;;-1.85;91.86;98963.16;4990615;28;20054;-65
2024/01/17 06:33:20;;;;;;;20.48;8.85;;;;;;;-1.82;91.47;98965.72;4990079;28;20046;-64
2024/01/17 06:35:49;;;;;;;17.23;9.80;;;;;;;-1.80;91.07;98956.44;4991265;28;20050;-64
2024/01/17 06:38:14;;;;;;;18.77;8.77;;;;;;;-1.79;90.90;98950.56;4992369;28;21219;-63
2024/01/17 06:40:40;;;;;;;14.15;8.60;;;;;;;-1.77;90.52;98946.34;4994612;28;20049;-64
2024/01/17 06:43:06;;;;;;;18.05;8.73;;;;;;;-1.77;90.59;98943.81;4991871;28;20050;-64
2024/01/17 06:45:31;;;;;;;20.10;9.43;;;;;;;-1.75;90.25;98944.69;4989853;28;20042;-64
2024/01/17 06:47:58;;;;;;;18.50;9.40;;;;;;;-1.75;90.71;98945.53;4992988;28;20123;-64
2024/01/17 06:50:24;;;;;;;16.20;8.55;;;;;;;-1.72;91.00;98952.31;4983718;28;20554;-63
2024/01/17 06:52:50;;;;;;;17.05;8.10;;;;;;;-1.70;91.61;98960.81;4990706;28;20165;-63
2024/01/17 06:55:15;;;;;;;25.42;9.52;;;;;;;-1.73;91.96;98959.06;4992820;28;20117;-64
2024/01/17 06:57:41;;;;;;;21.98;8.45;;;;;;;-1.71;91.42;98942.22;4990724;28;20073;-63
2024/01/17 07:00:07;;;;;;;19.15;9.23;;;;;;;-1.69;91.79;98942.22;4988814;28;20038;-64
2024/01/17 07:02:32;;;;;;;17.60;9.27;;;;;;;-1.72;91.97;98940.50;4988339;28;20053;-63
2024/01/17 07:04:58;;;;;;;22.35;8.88;;;;;;;-1.70;91.75;98948.13;4992800;28;20039;-63
2024/01/17 07:07:23;;;;;;;19.85;9.88;;;;;;;-1.67;92.25;98949.00;4986544;28;20042;-63
2024/01/17 07:09:49;;;;;;;24.58;9.55;;;;;;;-1.68;92.31;98949.84;4989884;28;20410;-63
2024/01/17 07:12:14;;;;;;;19.15;9.73;;;;;;;-1.66;91.95;98939.72;4984908;28;20045;-64
2024/01/17 07:14:39;;;;;;;20.10;9.77;;;;;;;-1.66;92.04;98940.56;4986737;28;20034;-63
2024/01/17 07:17:06;;;;;;;17.70;9.18;;;;;;;-1.63;92.95;98938.06;4990547;28;20030;-63
2024/01/17 07:19:35;;;;;;;22.40;8.77;;;;;;;-1.64;92.05;98928.75;4989507;28;20414;-63
2024/01/17 07:22:00;;;;;;;18.30;8.43;;;;;;;-1.58;92.90;98940.66;4994324;28;20451;-63
2024/01/17 07:24:26;;;;;;;16.80;9.45;;;;;;;-1.58;92.03;98931.38;4989777;28;20065;-63
2024/01/17 07:26:51;;;;;;;20.65;9.65;;;;;;;-1.53;91.83;98906.09;4992525;28;20038;-63
2024/01/17 07:29:16;;;;;;;16.98;8.68;;;;;;;-1.55;91.64;98888.34;4995150;28;20706;-63
2024/01/17 07:31:42;;;;;;;13.80;8.52;;;;;;;-1.55;91.48;98897.66;4994929;28;20045;-63
2024/01/17 07:34:08;;;;;;;21.15;9.60;;;;;;;-1.54;91.92;98892.56;4995169;28;20042;-64
2024/01/17 07:36:34;;;;;;;21.92;9.40;;;;;;;-1.47;91.71;98890.09;4987992;28;20046;-63
2024/01/17 07:38:59;;;;;;;20.83;9.38;;;;;;;-1.47;91.56;98873.22;4993756;28;20034;-63
2024/01/17 07:41:25;;;;;;;16.15;9.13;;;;;;;-1.44;90.71;98855.50;4991494;28;20038;-64
2024/01/17 07:43:50;;;;;;;23.90;10.15;;;;;;;-1.40;91.07;98858.94;4987153;28;20042;-63
2024/01/17 07:46:16;;;;;;;17.67;10.45;;;;;;;-1.39;91.27;98833.59;4993035;28;20042;-63
2024/01/17 07:48:42;;;;;;;23.60;10.15;;;;;;;-1.38;90.71;98835.28;4991948;28;20046;-64
2024/01/17 07:51:08;;;;;;;18.50;9.68;;;;;;;-1.35;91.47;98839.53;4989705;28;20053;-63
2024/01/17 07:53:33;;;;;;;20.38;11.60;;;;;;;-1.33;90.81;98828.56;4992866;28;20034;-63
2024/01/17 07:56:00;;;;;;;22.10;11.05;;;;;;;-1.32;90.66;98815.06;4989577;28;20399;-63
2024/01/17 07:58:25;;;;;;;23.65;11.15;;;;;;;-1.30;89.97;98785.50;4988192;28;20038;-63
2024/01/17 08:00:51;;;;;;;25.50;11.20;;;;;;;-1.27;90.41;98793.13;4988144;28;20566;-63
2024/01/17 08:03:16;;;;;;;24.80;11.07;;;;;;;-1.26;90.29;98783.84;4991234;28;20034;-63
2024/01/17 08:05:41;;;;;;;29.05;12.80;;;;;;;-1.22;89.98;98781.34;4993208;28;20038;-64
2024/01/17 08:08:07;;;;;;;23.17;12.63;;;;;;;-1.22;89.51;98778.78;4994213;28;20038;-64
2024/01/17 08:10:33;;;;;;;44.05;19.50;;;;;;;-1.19;89.77;98786.41;4992180;28;20050;-63
2024/01/17 08:12:58;;;;;;;30.15;16.08;;;;;;;-1.13;89.74;98783.06;4989205;28;20092;-64
2024/01/17 08:15:24;;;;;;;30.45;13.70;;;;;;;-1.07;90.03;98776.34;4992614;28;20049;-63
2024/01/17 08:17:50;;;;;;;28.50;13.18;;;;;;;-1.08;89.95;98767.06;4992111;28;20042;-63
2024/01/17 08:20:16;;;;;;;21.00;11.02;;;;;;;-1.01;90.34;98762.88;4990204;28;20042;-63
2024/01/17 08:22:43;;;;;;;26.38;13.73;;;;;;;-0.98;89.25;98750.19;4986047;28;20038;-63
2024/01/17 08:25:09;;;;;;;19.45;10.98;;;;;;;-0.96;89.27;98751.91;4990103;28;20161;-64
2024/01/17 08:27:36;;;;;;;18.70;10.02;;;;;;;-0.97;89.08;98745.16;4991309;28;20050;-63
2024/01/17 08:30:04;;;;;;;19.27;9.82;;;;;;;-0.91;89.16;98741.78;4989620;28;20034;-63
2024/01/17 08:32:29;;;;;;;16.77;11.48;;;;;;;-0.87;89.18;98733.38;4990340;28;20592;-65
2024/01/17 08:34:55;;;;;;;18.17;10.00;;;;;;;-0.83;89.09;98735.06;4995247;28;20023;-64
2024/01/17 08:37:21;;;;;;;19.70;10.65;;;;;;;-0.78;89.31;98725.81;4988363;28;20504;-63
2024/01/17 08:39:46;;;;;;;18.77;9.50;;;;;;;-0.77;89.07;98719.03;4987370;28;20038;-63
2024/01/17 08:42:12;;;;;;;16.30;9.43;;;;;;;-0.75;88.51;98712.28;4986900;28;20181;-63
2024/01/17 08:44:42;;;;;;;20.73;10.43;;;;;;;-0.68;88.85;98719.91;4987522;28;20037;-63
2024/01/17 08:47:08;;;;;;;20.25;10.10;;;;;;;-0.70;87.24;98688.63;4989077;28;20031;-63
2024/01/17 08:49:33;;;;;;;15.88;9.43;;;;;;;-0.66;86.94;98674.25;4990155;28;20400;-64
2024/01/17 08:51:59;;;;;;;16.90;9.73;;;;;;;-0.56;86.55;98674.28;4991573;28;20034;-63
2024/01/17 08:54:25;;;;;;;19.58;10.90;;;;;;;-0.49;86.73;98665.84;4986968;28;20042;-63
2024/01/17 08:56:51;;;;;;;23.48;9.18;;;;;;;-0.51;85.86;98647.22;4993947;28;20041;-63
2024/01/17 08:59:16;;;;;;;17.73;9.13;;;;;;;-0.47;85.09;98622.69;4996395;28;20049;-63
2024/01/17 09:01:42;;;;;;;20.25;9.43;;;;;;;-0.40;84.86;98624.41;4994234;28;20100;-63
2024/01/17 09:04:07;;;;;;;20.05;8.88;;;;;;;-0.37;84.86;98619.34;4990516;28;20523;-63
2024/01/17 09:06:33;;;;;;;15.15;9.40;;;;;;;-0.32;84.59;98609.16;4987333;28;20072;-63
2024/01/17 09:08:58;;;;;;;19.77;9.93;;;;;;;-0.30;84.56;98604.97;4989678;28;20030;-63
2024/01/17 09:11:24;;;;;;;18.25;9.80;;;;;;;-0.27;85.15;98612.56;4983795;28;20039;-63
2024/01/17 09:13:49;;;;;;;17.63;9.75;;;;;;;-0.19;84.86;98616.81;4989583;28;20033;-63
2024/01/17 09:16:15;;;;;;;21.92;9.63;;;;;;;-0.19;84.58;98605.78;4993151;28;20109;-63
2024/01/17 09:18:40;;;;;;;19.35;9.10;;;;;;;-0.23;84.65;98602.41;4990063;28;20038;-65
2024/01/17 09:21:06;;;;;;;20.70;10.73;;;;;;;-0.19;85.15;98610.88;4989180;28;20058;-63
2024/01/17 09:23:31;;;;;;;20.60;10.13;;;;;;;-0.22;85.17;98613.41;4988890;28;20112;-64
2024/01/17 09:25:57;;;;;;;20.42;10.65;;;;;;;-0.22;85.97;98628.66;4987724;28;20031;-63
2024/01/17 09:28:22;;;;;;;22.40;11.10;;;;;;;-0.27;85.66;98612.56;4986180;28;20522;-63
2024/01/17 09:30:48;;;;;;;22.33;11.48;;;;;;;-0.22;86.11;98619.34;4986823;28;20046;-63
2024/01/17 09:33:13;;;;;;;21.95;12.73;;;;;;;-0.23;86.39;98619.31;4984835;28;20030;-63
2024/01/17 09:35:42;;;;;;;19.10;10.55;;;;;;;-0.26;85.59;98596.47;4985302;28;20102;-63
2024/01/17 09:38:08;;;;;;;20.75;11.32;;;;;;;-0.19;86.04;98603.25;4993772;28;20034;-64
2024/01/17 09:40:34;;;;;;;26.13;10.98;;;;;;;-0.20;85.78;98592.25;4990063;28;20042;-64
2024/01/17 09:43:02;;;;;;;18.48;9.75;;;;;;;-0.17;85.92;98599.88;4983824;28;20074;-63
2024/01/17 09:45:29;;;;;;;22.40;11.55;;;;;;;-0.22;84.70;98571.09;4991550;28;20049;-63
2024/01/17 09:47:56;;;;;;;16.30;9.48;;;;;;;-0.20;84.65;98576.16;4991996;28;20035;-64
2024/01/17 09:50:21;;;;;;;27.42;17.13;;;;;;;-0.15;84.95;98580.41;4990261;28;20584;-63
2024/01/17 09:52:48;;;;;;;20.67;10.57;;;;;;;-0.15;84.73;98574.47;4986393;28;20574;-63
2024/01/17 09:55:16;;;;;;;21.15;10.63;;;;;;;-0.14;84.67;98568.53;4987686;28;20062;-63
2024/01/17 09:57:49;;;;;;;21.05;10.38;;;;;;;-0.18;84.83;98569.38;4989112;28;20536;-63
2024/01/17 10:00:15;;;;;;;21.27;10.45;;;;;;;-0.19;84.56;98563.50;4985929;28;20042;-64
2024/01/17 10:02:42;;;;;;;26.98;12.10;;;;;;;-0.19;85.39;98578.72;4987959;28;20026;-63
2024/01/17 10:05:12;;;;;;;21.60;11.73;;;;;;;-0.13;84.96;98572.78;4990564;28;20620;-63
2024/01/17 10:07:38;;;;;;;21.77;11.63;;;;;;;-0.21;84.50;98556.69;4993549;28;20045;-63
2024/01/17 10:10:04;;;;;;;20.83;11.95;;;;;;;-0.20;85.19;98571.94;4995368;28;20503;-63
2024/01/17 10:12:30;;;;;;;26.60;12.48;;;;;;;-0.17;84.87;98563.47;4991372;28;20046;-63
2024/01/17 10:14:55;;;;;;;33.53;17.55;;;;;;;-0.11;85.83;98574.47;4988854;28;20088;-63
2024/01/17 10:17:21;;;;;;;54.00;22.42;;;;;;;-0.10;85.84;98572.78;4992110;28;20062;-63
2024/01/17 10:19:47;;;;;;;30.77;14.75;;;;;;;-0.14;85.82;98569.41;4991719;28;20046;-64
2024/01/17 10:22:13;;;;;;;34.28;15.20;;;;;;;-0.15;86.47;98582.94;4987617;28;20065;-63
2024/01/17 10:24:39;;;;;;;38.63;16.55;;;;;;;-0.12;85.65;98561.75;4989418;28;20080;-64
2024/01/17 10:27:06;;;;;;;44.97;18.20;;;;;;;-0.09;85.81;98560.06;4985629;28;20048;-64
2024/01/17 10:29:31;;;;;;;30.63;14.27;;;;;;;-0.07;86.32;98563.47;4993279;28;20498;-64
2024/01/17 10:31:59;;;;;;;27.50;11.45;;;;;;;-0.04;85.46;98550.78;4989995;28;20108;-64
2024/01/17 10:34:30;;;;;;;26.77;11.30;;;;;;;-0.03;85.60;98534.69;4990879;28;20114;-64
2024/01/17 10:36:55;;;;;;;20.25;11.50;;;;;;;-0.00;84.96;98521.13;4990218;28;20602;-64
2024/01/17 10:39:22;;;;;;;22.30;12.40;;;;;;;0.01;85.35;98531.28;4991636;28;20154;-64
2024/01/17 10:41:54;;;;;;;23.95;12.93;;;;;;;-0.01;85.39;98519.44;4990429;28;20065;-63
2024/01/17 10:44:20;;;;;;;26.08;12.32;;;;;;;-0.00;85.49;98516.03;4994740;28;20399;-64
2024/01/17 10:46:53;;;;;;;21.25;12.18;;;;;;;0.05;86.07;98527.88;4992765;28;20065;-64
2024/01/17 10:49:19;;;;;;;21.70;12.93;;;;;;;0.03;86.67;98529.59;4993260;28;20517;-64
2024/01/17 10:52:08;;;;;;;26.20;12.45;;;;;;;0.06;86.23;98526.19;4998715;28;20042;-64
2024/01/17 10:54:58;;;;;;;31.52;17.75;;;;;;;0.10;87.16;98535.50;4986943;28;20169;-64
2024/01/17 10:57:25;;;;;;;31.38;17.73;;;;;;;0.10;87.44;98541.44;4981213;28;20042;-64
2024/01/17 10:59:50;;;;;;;24.15;13.27;;;;;;;-0.06;88.25;98537.22;4993256;28;20113;-64
2024/01/17 11:02:20;;;;;;;21.02;11.65;;;;;;;-0.05;89.32;98556.69;4995599;28;20185;-64
2024/01/17 11:04:48;;;;;;;22.45;12.32;;;;;;;-0.11;91.02;98578.69;4990953;28;20522;-64
2024/01/17 11:07:16;;;;;;;24.80;13.85;;;;;;;-0.10;92.10;98590.56;4991162;28;20498;-64
2024/01/17 11:09:43;;;;;;;25.70;13.15;;;;;;;-0.17;92.46;98588.84;4989600;28;20038;-64
2024/01/17 11:12:10;;;;;;;23.60;13.40;;;;;;;-0.15;93.16;98593.09;4991592;28;20045;-64